Time;durP1;ratioP1;P1;durP2;ratioP2;P2;SDS_P1;SDS_P2;PMS_P1;PMS_P2;Temp;Humidity;BMP_temperature;BMP_pressure;BME280_temperature;BME280_humidity;BME280_pressure;Samples;Min_cycle;Max_cycle;Signal;HPM_P1;HPM_P2
2020/12/07 00:02:23;;;;;;;3.92;3.30;;;;;;;15.89;55.99;98920.69;5012235;27;128211;-60
2020/12/07 00:04:49;;;;;;;3.63;3.25;;;;;;;15.93;55.53;98927.03;5024219;27;97746;-60
2020/12/07 00:07:15;;;;;;;4.70;3.03;;;;;;;15.92;55.90;98933.59;5023670;27;127381;-60
2020/12/07 00:09:41;;;;;;;3.40;2.95;;;;;;;15.92;55.94;98936.31;5023062;27;127757;-60
2020/12/07 00:12:07;;;;;;;4.22;3.20;;;;;;;15.98;55.89;98936.88;5024064;27;98693;-61
2020/12/07 00:14:33;;;;;;;3.65;3.20;;;;;;;15.97;56.25;98938.81;5023263;27;116766;-61
2020/12/07 00:16:59;;;;;;;3.53;3.10;;;;;;;15.97;55.96;98927.16;4971236;27;109008;-62
2020/12/07 00:19:26;;;;;;;4.13;3.63;;;;;;;15.97;56.20;98936.09;5022925;27;126041;-62
2020/12/07 00:21:52;;;;;;;3.55;3.05;;;;;;;16.00;55.67;98932.69;5024747;27;98082;-60
2020/12/07 00:24:18;;;;;;;3.55;3.03;;;;;;;15.99;56.22;98919.44;5022929;27;117178;-60
2020/12/07 00:26:44;;;;;;;3.67;2.85;;;;;;;15.99;56.28;98922.94;5023310;27;127680;-62
2020/12/07 00:29:11;;;;;;;4.07;3.20;;;;;;;16.02;56.10;98929.63;5023522;27;98409;-62
2020/12/07 00:31:37;;;;;;;3.97;3.38;;;;;;;16.02;56.17;98929.63;5005334;27;97931;-60
2020/12/07 00:34:03;;;;;;;4.78;3.10;;;;;;;16.01;55.96;98928.06;4970779;27;115975;-60
2020/12/07 00:36:29;;;;;;;3.33;3.00;;;;;;;16.03;55.83;98928.50;5003739;27;125896;-60
2020/12/07 00:38:55;;;;;;;3.88;3.47;;;;;;;16.03;55.83;98918.41;4988040;27;108952;-60
2020/12/07 00:41:24;;;;;;;4.05;3.13;;;;;;;16.02;55.92;98919.53;5023095;27;126935;-63
2020/12/07 00:43:50;;;;;;;3.90;3.10;;;;;;;16.05;55.96;98913.44;5004892;27;98011;-62
2020/12/07 00:46:16;;;;;;;4.38;3.38;;;;;;;16.04;56.09;98917.28;5023506;27;98522;-60
2020/12/07 00:48:43;;;;;;;3.60;3.10;;;;;;;16.05;55.65;98921.59;5022970;27;110170;-63
2020/12/07 00:51:09;;;;;;;4.28;3.50;;;;;;;16.07;55.68;98924.78;5022908;27;116734;-60
2020/12/07 00:53:35;;;;;;;5.72;3.22;;;;;;;16.07;55.35;98929.38;5022826;27;117831;-60
2020/12/07 00:56:01;;;;;;;3.67;3.30;;;;;;;16.06;55.75;98928.59;5022807;27;99433;-60
2020/12/07 00:58:28;;;;;;;3.70;2.92;;;;;;;16.10;55.01;98931.44;5012452;27;98401;-58
2020/12/07 01:00:54;;;;;;;4.03;3.60;;;;;;;16.07;55.07;98938.38;5002210;27;98277;-60
2020/12/07 01:03:20;;;;;;;3.50;3.15;;;;;;;16.10;55.23;98923.28;5003343;27;97767;-59
2020/12/07 01:05:46;;;;;;;4.90;3.38;;;;;;;16.11;55.48;98909.38;5002130;27;126735;-60
2020/12/07 01:08:12;;;;;;;4.88;3.50;;;;;;;16.13;55.35;98900.84;5002768;27;116010;-59
2020/12/07 01:10:38;;;;;;;4.10;3.40;;;;;;;16.12;54.93;98897.34;5002474;27;128008;-58
2020/12/07 01:13:04;;;;;;;3.88;3.33;;;;;;;16.14;55.32;98888.84;5003662;27;98017;-58
2020/12/07 01:15:30;;;;;;;3.85;3.33;;;;;;;16.17;54.80;98886.25;5002589;27;99199;-59
2020/12/07 01:17:56;;;;;;;4.05;2.90;;;;;;;16.22;54.84;98887.94;5004091;27;98334;-58
2020/12/07 01:20:22;;;;;;;4.22;3.00;;;;;;;16.26;54.39;98885.31;5001966;27;124710;-57
2020/12/07 01:22:48;;;;;;;3.92;3.25;;;;;;;16.29;54.67;98885.44;5002488;27;117769;-58
2020/12/07 01:25:15;;;;;;;4.25;3.45;;;;;;;16.31;54.39;98885.88;5002478;27;113070;-57
2020/12/07 01:27:41;;;;;;;3.97;3.40;;;;;;;16.33;54.51;98888.25;5003777;27;103408;-57
2020/12/07 01:30:07;;;;;;;3.53;3.22;;;;;;;16.36;54.44;98882.13;5001396;27;126372;-57
2020/12/07 01:32:33;;;;;;;4.75;3.45;;;;;;;16.36;54.34;98876.69;5003074;27;97948;-57
2020/12/07 01:34:59;;;;;;;4.00;3.60;;;;;;;16.37;54.24;98886.44;5001667;27;98291;-59
2020/12/07 01:37:25;;;;;;;4.47;3.30;;;;;;;16.40;54.39;98875.66;5001797;27;127899;-58
2020/12/07 01:39:51;;;;;;;4.05;3.63;;;;;;;16.43;54.25;98874.19;5019066;27;127516;-57
2020/12/07 01:42:17;;;;;;;4.47;3.60;;;;;;;16.44;54.32;98870.34;5021904;27;117746;-57
2020/12/07 01:44:43;;;;;;;4.43;3.33;;;;;;;16.40;54.44;98864.00;5020667;27;127825;-59
2020/12/07 01:47:27;;;;;;;3.85;3.30;;;;;;;16.40;54.61;98866.72;5003565;27;100121;-57
2020/12/07 01:49:53;;;;;;;4.30;3.20;;;;;;;16.42;54.55;98862.50;5004402;27;97998;-57
2020/12/07 01:52:20;;;;;;;4.80;3.42;;;;;;;16.45;54.16;98855.59;5004207;27;98110;-59
2020/12/07 01:54:47;;;;;;;3.95;3.40;;;;;;;16.42;54.62;98850.84;5021694;27;99089;-59
2020/12/07 01:57:14;;;;;;;4.82;3.47;;;;;;;16.44;54.33;98843.13;5023095;27;98949;-59
2020/12/07 01:59:40;;;;;;;4.63;3.67;;;;;;;16.42;54.29;98840.75;5007763;27;97868;-59
2020/12/07 02:02:06;;;;;;;5.10;3.40;;;;;;;16.43;54.21;98833.41;5003080;27;97716;-58
2020/12/07 02:04:32;;;;;;;4.03;3.50;;;;;;;16.40;54.19;98831.38;4984013;27;98319;-59
2020/12/07 02:06:58;;;;;;;4.63;3.53;;;;;;;16.42;53.93;98824.44;5001885;27;128071;-58
2020/12/07 02:09:28;;;;;;;4.32;3.20;;;;;;;16.35;53.99;98818.81;5004694;27;127590;-57
2020/12/07 02:11:54;;;;;;;4.07;3.40;;;;;;;16.39;54.27;98816.19;5007086;27;97798;-57
2020/12/07 02:14:20;;;;;;;4.50;3.53;;;;;;;16.38;54.22;98818.09;5004673;27;119107;-57
2020/12/07 02:16:46;;;;;;;4.63;3.13;;;;;;;16.40;54.60;98826.72;5002935;27;128813;-57
2020/12/07 02:19:12;;;;;;;3.75;3.10;;;;;;;16.39;54.34;98833.31;5012403;27;97784;-58
2020/12/07 02:21:38;;;;;;;4.45;3.25;;;;;;;16.39;54.10;98818.91;5026967;27;97682;-59
2020/12/07 02:24:04;;;;;;;4.25;3.20;;;;;;;16.37;54.67;98823.91;5025247;27;104120;-58
2020/12/07 02:26:30;;;;;;;4.53;3.30;;;;;;;16.34;54.62;98824.56;5024943;27;128828;-58
2020/12/07 02:28:56;;;;;;;3.85;3.25;;;;;;;16.37;54.54;98821.19;5006082;27;127950;-58
2020/12/07 02:31:22;;;;;;;4.22;3.53;;;;;;;16.36;54.41;98819.59;5006339;27;118019;-59
2020/12/07 02:33:48;;;;;;;3.60;3.03;;;;;;;16.33;54.66;98817.56;5006402;27;127748;-57
2020/12/07 02:36:14;;;;;;;5.70;3.50;;;;;;;16.35;54.48;98824.25;4989887;27;102731;-57
2020/12/07 02:38:40;;;;;;;4.13;3.47;;;;;;;16.33;54.51;98818.34;5022601;27;127573;-58
2020/12/07 02:41:06;;;;;;;4.20;3.00;;;;;;;16.36;54.48;98828.53;5003296;27;117776;-60
2020/12/07 02:43:32;;;;;;;4.88;3.20;;;;;;;16.32;54.92;98822.22;5002333;27;127299;-59
2020/12/07 02:45:59;;;;;;;4.68;3.30;;;;;;;16.35;54.73;98834.34;5004138;27;128228;-57
2020/12/07 02:48:25;;;;;;;3.97;3.38;;;;;;;16.30;54.87;98827.19;5004402;27;127669;-59
2020/12/07 02:50:51;;;;;;;4.78;3.60;;;;;;;16.33;54.90;98834.66;5002596;27;116774;-58
2020/12/07 02:53:17;;;;;;;3.95;3.33;;;;;;;16.33;54.83;98831.16;5002587;27;128589;-58
2020/12/07 02:55:43;;;;;;;4.13;3.05;;;;;;;16.32;54.40;98833.09;5004385;27;125902;-59
2020/12/07 02:58:09;;;;;;;4.63;3.40;;;;;;;16.31;55.13;98826.06;5005029;27;98165;-61
2020/12/07 03:00:35;;;;;;;4.20;3.60;;;;;;;16.30;54.86;98821.75;5025173;27;102456;-58
2020/12/07 03:03:01;;;;;;;3.40;3.08;;;;;;;16.29;54.93;98822.91;5025277;27;98568;-58
2020/12/07 03:05:27;;;;;;;3.58;3.22;;;;;;;16.32;55.28;98821.44;4989692;27;101848;-59
2020/12/07 03:07:53;;;;;;;4.13;3.50;;;;;;;16.29;55.14;98828.34;5024310;27;127906;-60
2020/12/07 03:10:19;;;;;;;4.50;3.20;;;;;;;16.30;55.12;98819.03;5024772;27;110027;-60
2020/12/07 03:12:45;;;;;;;4.80;3.40;;;;;;;16.29;55.10;98817.47;5019170;27;128005;-59
2020/12/07 03:15:12;;;;;;;4.15;3.35;;;;;;;16.28;55.01;98820.53;5003402;27;127621;-60
2020/12/07 03:17:38;;;;;;;5.03;3.25;;;;;;;16.27;54.99;98816.22;5004427;27;98194;-58
2020/12/07 03:20:04;;;;;;;4.03;3.17;;;;;;;16.26;55.07;98814.63;5014362;27;118792;-57
2020/12/07 03:22:30;;;;;;;4.97;3.63;;;;;;;16.23;55.33;98813.41;5024786;27;128209;-59
2020/12/07 03:24:56;;;;;;;5.35;3.67;;;;;;;16.26;55.17;98820.88;5023636;27;128119;-58
2020/12/07 03:27:22;;;;;;;5.00;3.33;;;;;;;16.23;55.25;98810.69;5024279;27;129444;-60
2020/12/07 03:29:48;;;;;;;4.15;3.28;;;;;;;16.22;55.36;98805.59;5024171;27;118425;-59
2020/12/07 03:32:14;;;;;;;4.40;3.70;;;;;;;16.22;55.06;98809.09;5023306;27;128401;-58
2020/12/07 03:34:40;;;;;;;4.57;3.83;;;;;;;16.23;55.06;98812.59;5004778;27;128045;-58
2020/12/07 03:37:06;;;;;;;4.55;3.70;;;;;;;16.20;55.30;98811.38;5023522;27;126187;-57
2020/12/07 03:39:32;;;;;;;5.00;4.10;;;;;;;16.19;55.06;98809.78;5017525;27;110758;-60
2020/12/07 03:41:58;;;;;;;4.55;3.80;;;;;;;16.20;55.20;98809.44;5003889;27;123685;-59
2020/12/07 03:44:24;;;;;;;5.85;3.55;;;;;;;16.20;55.51;98814.09;5003207;27;128574;-59
2020/12/07 03:46:50;;;;;;;4.88;4.28;;;;;;;16.18;55.37;98805.47;5003865;27;128376;-61
2020/12/07 03:49:16;;;;;;;4.50;3.70;;;;;;;16.14;55.35;98799.94;5003794;27;118152;-58
2020/12/07 03:51:42;;;;;;;4.53;3.90;;;;;;;16.16;54.91;98802.34;5003778;27;116364;-58
2020/12/07 03:54:08;;;;;;;5.63;4.30;;;;;;;16.15;55.27;98798.81;4985357;27;108998;-60
2020/12/07 03:56:34;;;;;;;5.63;4.28;;;;;;;16.13;55.09;98798.38;5002779;27;127174;-60
2020/12/07 03:59:00;;;;;;;5.13;4.22;;;;;;;16.09;55.14;98797.47;4967342;27;118086;-60
2020/12/07 04:01:26;;;;;;;6.55;4.32;;;;;;;16.10;55.37;98800.97;4984674;27;124099;-58
2020/12/07 04:03:57;;;;;;;5.03;4.07;;;;;;;16.11;55.20;98795.22;5004286;27;98594;-58
2020/12/07 04:06:40;;;;;;;5.93;4.20;;;;;;;16.12;55.02;98798.72;5005029;27;97838;-59
2020/12/07 04:09:07;;;;;;;5.75;4.68;;;;;;;16.10;55.33;98795.53;5003886;27;98002;-58
2020/12/07 04:11:33;;;;;;;5.60;4.43;;;;;;;16.09;54.96;98783.88;5004215;27;100081;-59
2020/12/07 04:13:59;;;;;;;5.30;4.57;;;;;;;16.09;54.97;98786.59;5016888;27;98573;-60
2020/12/07 04:16:28;;;;;;;5.60;4.40;;;;;;;16.10;54.94;98800.97;5021245;27;127623;-58
2020/12/07 04:18:54;;;;;;;5.07;4.03;;;;;;;16.12;54.85;98815.03;5025240;27;97656;-59
2020/12/07 04:21:20;;;;;;;5.32;4.20;;;;;;;16.10;54.86;98811.84;5023039;27;128425;-58
2020/12/07 04:23:46;;;;;;;5.07;4.10;;;;;;;16.11;54.98;98802.56;5023751;27;99215;-59
2020/12/07 04:26:13;;;;;;;5.65;4.38;;;;;;;16.13;55.34;98813.88;5017295;27;126571;-61
2020/12/07 04:28:39;;;;;;;4.25;3.85;;;;;;;16.15;54.65;98806.97;5004195;27;97803;-57
2020/12/07 04:31:05;;;;;;;5.03;4.40;;;;;;;16.15;54.83;98822.47;4984418;27;127887;-59
2020/12/07 04:33:31;;;;;;;6.30;4.15;;;;;;;16.16;55.09;98805.84;5010498;27;128109;-60
2020/12/07 04:35:57;;;;;;;5.47;4.30;;;;;;;16.19;54.65;98813.31;5022619;27;125843;-58
2020/12/07 04:38:23;;;;;;;5.13;3.97;;;;;;;16.19;54.91;98826.91;5004980;27;119905;-60
2020/12/07 04:40:49;;;;;;;6.07;4.40;;;;;;;16.18;54.78;98830.72;5023872;27;98563;-60
2020/12/07 04:43:16;;;;;;;5.57;4.50;;;;;;;16.19;55.28;98816.03;5003587;27;128143;-58
2020/12/07 04:45:43;;;;;;;5.93;4.20;;;;;;;16.19;55.22;98823.38;5021140;27;113935;-59
2020/12/07 04:48:09;;;;;;;5.43;4.43;;;;;;;16.20;55.13;98830.41;5023299;27;98008;-59
2020/12/07 04:50:35;;;;;;;5.97;4.43;;;;;;;16.20;55.23;98844.78;5020398;27;128473;-60
2020/12/07 04:53:01;;;;;;;5.40;4.53;;;;;;;16.20;54.24;98855.66;4999362;27;127894;-58
2020/12/07 04:55:27;;;;;;;6.18;4.72;;;;;;;16.22;54.84;98865.41;5000060;27;129381;-59
2020/12/07 04:57:54;;;;;;;5.70;4.20;;;;;;;16.23;55.01;98856.09;5004054;27;97793;-60
2020/12/07 05:00:24;;;;;;;6.85;4.65;;;;;;;16.24;55.20;98865.84;5002680;27;99320;-58
2020/12/07 05:02:54;;;;;;;5.47;4.55;;;;;;;16.23;55.23;98850.66;5003941;27;98321;-58
2020/12/07 05:05:20;;;;;;;5.38;4.53;;;;;;;16.27;55.29;98857.00;5003756;27;97798;-59
2020/12/07 05:07:51;;;;;;;4.97;4.28;;;;;;;16.26;55.18;98864.34;5003770;27;97780;-60
2020/12/07 05:10:30;;;;;;;5.40;4.30;;;;;;;16.25;55.26;98864.72;5002348;27;97876;-58
2020/12/07 05:13:04;;;;;;;6.70;4.75;;;;;;;16.26;55.47;98855.41;5003342;27;98248;-58
2020/12/07 05:15:31;;;;;;;6.00;4.90;;;;;;;16.26;55.27;98850.78;5023673;27;98141;-59
2020/12/07 05:17:58;;;;;;;5.70;4.68;;;;;;;16.28;55.40;98850.44;5023269;27;97904;-58
2020/12/07 05:20:25;;;;;;;5.13;3.90;;;;;;;16.30;55.38;98859.81;5022404;27;98700;-60
2020/12/07 05:22:51;;;;;;;6.32;4.63;;;;;;;16.26;55.34;98869.78;5022168;27;127725;-59
2020/12/07 05:25:17;;;;;;;5.93;4.57;;;;;;;16.29;55.50;98858.25;5022991;27;98809;-58
2020/12/07 05:27:45;;;;;;;6.68;4.47;;;;;;;16.31;55.26;98860.59;5024107;27;97890;-57
2020/12/07 05:30:30;;;;;;;5.18;4.25;;;;;;;16.33;55.35;98864.56;5004001;27;99139;-59
2020/12/07 05:32:57;;;;;;;6.22;4.88;;;;;;;16.33;55.33;98878.16;5023143;27;99174;-60
2020/12/07 05:35:23;;;;;;;5.50;4.68;;;;;;;16.35;55.15;98886.00;4992502;27;127370;-58
2020/12/07 05:37:49;;;;;;;5.32;4.25;;;;;;;16.36;55.29;98893.81;5023025;27;118853;-58
2020/12/07 05:40:15;;;;;;;6.28;4.53;;;;;;;16.36;55.40;98912.03;5021950;27;128261;-59
2020/12/07 05:42:42;;;;;;;5.97;4.63;;;;;;;16.37;55.17;98914.41;5026210;27;99279;-58
2020/12/07 05:45:09;;;;;;;5.95;4.63;;;;;;;16.36;54.81;98917.47;5023213;27;128589;-58
2020/12/07 05:47:38;;;;;;;6.75;4.68;;;;;;;16.36;55.01;98931.88;5008094;27;97875;-60
2020/12/07 05:50:06;;;;;;;5.50;4.80;;;;;;;16.40;54.78;98931.97;5007350;27;98680;-59
2020/12/07 05:52:39;;;;;;;5.63;4.50;;;;;;;16.37;54.96;98936.16;5026549;27;98489;-58
2020/12/07 05:55:05;;;;;;;5.55;4.22;;;;;;;16.39;55.12;98944.00;5006748;27;97852;-59
2020/12/07 05:57:32;;;;;;;6.60;4.70;;;;;;;16.41;54.89;98955.31;5004202;27;106379;-58
2020/12/07 06:00:07;;;;;;;5.40;4.28;;;;;;;16.37;54.80;98955.19;5002905;27;97945;-58
2020/12/07 06:02:33;;;;;;;5.75;4.57;;;;;;;16.41;54.71;98955.31;5005586;27;127929;-59
2020/12/07 06:05:01;;;;;;;4.93;4.38;;;;;;;16.36;53.76;98961.78;5003414;27;98564;-60
2020/12/07 06:07:28;;;;;;;5.13;4.57;;;;;;;16.32;53.05;98966.31;4969527;27;107385;-59
2020/12/07 06:09:55;;;;;;;5.70;4.80;;;;;;;16.31;52.72;98964.75;4985442;27;99403;-61
2020/12/07 06:12:36;;;;;;;5.20;4.70;;;;;;;16.34;52.73;98971.41;4984343;27;97950;-61
2020/12/07 06:15:03;;;;;;;6.38;5.20;;;;;;;16.31;52.68;98967.44;5003343;27;98519;-61
2020/12/07 06:17:32;;;;;;;5.68;4.63;;;;;;;16.33;52.56;98977.97;5023487;27;105586;-61
2020/12/07 06:19:58;;;;;;;5.43;4.85;;;;;;;16.37;52.66;98976.16;5004522;27;98877;-62
2020/12/07 06:22:25;;;;;;;5.75;4.90;;;;;;;16.35;52.54;98970.28;5004008;27;98961;-61
2020/12/07 06:24:53;;;;;;;6.43;4.90;;;;;;;16.37;52.86;98976.94;5021886;27;98105;-63
2020/12/07 06:27:21;;;;;;;5.60;5.05;;;;;;;16.36;52.78;98978.09;5024058;27;97891;-60
2020/12/07 06:30:01;;;;;;;5.20;4.70;;;;;;;16.31;52.87;98983.75;5022305;27;98476;-61
2020/12/07 06:32:52;;;;;;;4.70;4.28;;;;;;;16.34;53.03;98995.88;5023578;27;98134;-58
2020/12/07 06:35:19;;;;;;;5.57;5.03;;;;;;;16.36;52.45;98993.63;5002476;27;98295;-60
2020/12/07 06:37:50;;;;;;;6.15;5.25;;;;;;;16.33;52.56;99005.16;5002848;27;98578;-58
2020/12/07 06:40:24;;;;;;;6.15;5.20;;;;;;;16.33;52.68;99000.50;5002418;27;99194;-60
2020/12/07 06:42:50;;;;;;;6.00;5.30;;;;;;;16.36;52.65;99009.94;5003116;27;97907;-59
2020/12/07 06:45:33;;;;;;;5.50;4.90;;;;;;;16.34;52.62;99010.25;5000393;27;98175;-60
2020/12/07 06:48:16;;;;;;;6.55;5.43;;;;;;;16.30;52.63;99006.63;5003109;27;97968;-59
2020/12/07 06:50:44;;;;;;;5.88;5.20;;;;;;;16.35;52.82;99016.50;5002807;27;98746;-58
2020/12/07 06:53:19;;;;;;;6.47;5.57;;;;;;;16.31;52.19;99018.28;5004654;27;99206;-60
2020/12/07 06:55:45;;;;;;;6.78;5.90;;;;;;;16.29;52.48;99024.09;5023616;27;98011;-60
2020/12/07 06:58:12;;;;;;;6.95;5.57;;;;;;;16.32;52.16;99017.19;5023017;27;97940;-58
2020/12/07 07:00:38;;;;;;;7.05;5.72;;;;;;;16.31;52.23;99024.56;5020305;27;98828;-58
2020/12/07 07:03:04;;;;;;;6.25;5.65;;;;;;;16.32;52.08;99023.41;5021056;27;98676;-58
2020/12/07 07:05:31;;;;;;;6.28;5.68;;;;;;;16.27;51.73;99020.09;5021846;27;127100;-59
2020/12/07 07:07:57;;;;;;;7.10;6.05;;;;;;;16.20;51.17;99021.47;5023585;27;97678;-58
2020/12/07 07:10:24;;;;;;;7.18;6.20;;;;;;;16.21;51.10;99027.72;5003461;27;128072;-58
2020/12/07 07:12:50;;;;;;;7.00;6.18;;;;;;;16.20;51.16;99045.94;5020781;27;98696;-60
2020/12/07 07:15:16;;;;;;;7.75;6.85;;;;;;;16.19;51.07;99040.81;4999572;27;110649;-60
2020/12/07 07:17:44;;;;;;;7.28;6.57;;;;;;;16.23;51.22;99040.94;5002673;27;97748;-58
2020/12/07 07:20:12;;;;;;;7.43;6.10;;;;;;;16.24;51.52;99048.00;5001587;27;112093;-60
2020/12/07 07:22:41;;;;;;;7.85;6.40;;;;;;;16.25;51.06;99047.63;5001893;27;113686;-58
2020/12/07 07:30:24;;;;;;;8.15;6.63;;;;;;;16.23;51.13;99057.25;5020971;27;98177;-58
2020/12/07 07:32:52;;;;;;;8.13;6.40;;;;;;;16.20;50.95;99056.03;5018507;27;111273;-59
2020/12/07 07:35:20;;;;;;;7.90;6.43;;;;;;;16.24;51.42;99050.72;5000724;27;114483;-59
2020/12/07 07:37:46;;;;;;;7.13;6.43;;;;;;;16.27;51.32;99048.13;5001793;27;97733;-59
2020/12/07 07:40:19;;;;;;;6.90;6.20;;;;;;;16.21;50.94;99057.59;4999777;27;97977;-58
2020/12/07 07:42:53;;;;;;;6.47;5.80;;;;;;;16.26;51.73;99065.53;5002328;27;99243;-59
2020/12/07 07:45:21;;;;;;;7.60;6.50;;;;;;;16.31;51.53;99059.91;5002058;27;97727;-60
2020/12/07 07:48:37;;;;;;;7.72;6.88;;;;;;;16.31;51.80;99070.78;4983448;27;97926;-58
2020/12/07 08:11:31;;;;;;;6.82;6.13;;;;;;;16.41;53.53;99091.28;5003330;27;98344;-57
2020/12/07 08:15:56;;;;;;;7.05;6.35;;;;;;;16.37;53.37;99098.53;4982322;27;98265;-60
2020/12/07 08:18:35;;;;;;;6.38;5.75;;;;;;;16.38;53.39;99098.16;5019510;27;118276;-57
2020/12/07 08:21:02;;;;;;;7.50;6.72;;;;;;;16.43;53.20;99095.25;5011446;27;97948;-57
2020/12/07 08:23:34;;;;;;;7.80;6.35;;;;;;;16.48;53.47;99093.44;5002367;27;99170;-59
2020/12/07 08:26:04;;;;;;;7.50;6.70;;;;;;;16.51;53.17;99098.19;5001252;27;98398;-59
2020/12/07 08:28:34;;;;;;;6.90;6.05;;;;;;;16.53;52.82;99107.59;5001200;27;97943;-57
2020/12/07 08:31:13;;;;;;;7.53;6.70;;;;;;;16.53;53.01;99098.63;5002159;27;98046;-59
2020/12/07 08:34:13;;;;;;;7.43;6.63;;;;;;;16.52;52.74;99092.41;5000556;27;98957;-60
2020/12/07 08:36:46;;;;;;;8.07;6.45;;;;;;;16.58;52.99;99095.69;5021263;27;98410;-58
2020/12/07 08:39:13;;;;;;;6.90;6.13;;;;;;;16.62;53.59;99105.56;5005118;27;98185;-58
2020/12/07 08:41:39;;;;;;;6.95;6.25;;;;;;;16.62;53.99;99102.03;5020896;27;105808;-57
2020/12/07 08:44:09;;;;;;;6.93;6.15;;;;;;;16.68;54.11;99103.41;5019689;27;128468;-59
2020/12/07 08:46:37;;;;;;;6.35;5.75;;;;;;;16.71;54.10;99123.72;5019398;27;98148;-59
2020/12/07 08:49:05;;;;;;;6.82;6.13;;;;;;;16.70;54.46;99131.06;5020843;27;102502;-57
2020/12/07 08:51:33;;;;;;;7.80;6.35;;;;;;;16.73;54.51;99124.97;5001956;27;98155;-57
2020/12/07 08:54:00;;;;;;;6.65;5.95;;;;;;;16.71;54.64;99129.94;5019681;27;98966;-58
2020/12/07 08:56:26;;;;;;;7.28;6.15;;;;;;;16.74;54.81;99140.19;5019583;27;99127;-57
2020/12/07 08:58:52;;;;;;;7.35;6.20;;;;;;;16.75;54.92;99128.16;5018441;27;128373;-57
2020/12/07 09:01:18;;;;;;;6.43;5.82;;;;;;;16.72;54.58;99128.00;5018926;27;98153;-59
2020/12/07 09:03:45;;;;;;;7.43;6.47;;;;;;;16.75;54.84;99127.38;5012496;27;98388;-58
2020/12/07 09:06:12;;;;;;;6.75;6.10;;;;;;;16.80;54.95;99127.13;5000569;27;99026;-58
2020/12/07 09:08:39;;;;;;;6.90;6.20;;;;;;;16.81;55.06;99134.16;5012916;27;97919;-60
2020/12/07 09:11:06;;;;;;;6.90;5.93;;;;;;;16.80;54.62;99138.00;5024521;27;97874;-59
2020/12/07 09:13:34;;;;;;;7.32;6.15;;;;;;;16.84;54.94;99130.75;5015746;27;100774;-59
2020/12/07 09:16:00;;;;;;;6.90;6.20;;;;;;;16.82;55.17;99133.00;5000545;27;99431;-59
2020/12/07 09:18:27;;;;;;;6.63;5.82;;;;;;;16.86;55.48;99144.81;5004172;27;100644;-59
2020/12/07 09:20:53;;;;;;;7.78;6.03;;;;;;;16.84;55.10;99147.88;5004002;27;97819;-58
2020/12/07 09:23:19;;;;;;;6.93;6.22;;;;;;;16.81;55.24;99142.31;5004878;27;98150;-59
2020/12/07 09:25:46;;;;;;;7.13;6.43;;;;;;;16.85;55.43;99156.81;5023746;27;97877;-59
2020/12/07 09:28:12;;;;;;;6.80;6.10;;;;;;;16.84;55.16;99166.91;5015109;27;98031;-59
2020/12/07 09:30:38;;;;;;;6.68;5.82;;;;;;;16.84;55.72;99175.09;5003832;27;118304;-59
2020/12/07 09:33:05;;;;;;;6.78;6.07;;;;;;;16.84;55.71;99166.91;5003518;27;119698;-58
2020/12/07 09:35:31;;;;;;;7.07;6.15;;;;;;;16.86;55.41;99167.38;5003884;27;98186;-57
2020/12/07 09:37:57;;;;;;;7.43;6.38;;;;;;;16.85;55.45;99187.53;5002951;27;113839;-57
2020/12/07 09:40:24;;;;;;;7.10;6.00;;;;;;;16.86;55.97;99172.84;5003948;27;97735;-58
2020/12/07 09:42:50;;;;;;;6.60;6.00;;;;;;;16.87;55.74;99170.91;5004090;27;97963;-59
2020/12/07 09:45:16;;;;;;;6.55;5.90;;;;;;;16.90;55.75;99181.91;5003363;27;128821;-60
2020/12/07 09:47:42;;;;;;;7.28;6.20;;;;;;;16.87;56.16;99170.91;5002342;27;127842;-58
2020/12/07 09:50:09;;;;;;;7.03;6.30;;;;;;;16.87;56.03;99170.91;5003676;27;99591;-60
2020/12/07 09:52:35;;;;;;;7.38;6.43;;;;;;;16.87;55.95;99171.69;5003620;27;98415;-58
2020/12/07 09:55:02;;;;;;;7.65;6.57;;;;;;;16.89;56.09;99166.69;5011087;27;98549;-59
2020/12/07 09:57:28;;;;;;;6.65;5.95;;;;;;;16.92;56.20;99171.44;4984801;27;97884;-58
2020/12/07 09:59:54;;;;;;;7.03;6.32;;;;;;;16.94;56.12;99173.84;4998678;27;97827;-60
2020/12/07 10:02:20;;;;;;;7.50;6.78;;;;;;;16.93;55.92;99162.16;5022688;27;102888;-59
2020/12/07 10:04:46;;;;;;;7.13;6.43;;;;;;;16.91;55.69;99174.53;5022753;27;98429;-58
2020/12/07 10:07:13;;;;;;;7.53;6.72;;;;;;;16.90;54.95;99162.84;5007154;27;97983;-58
2020/12/07 10:09:39;;;;;;;7.57;6.78;;;;;;;16.88;55.31;99167.81;5000319;27;104936;-61
2020/12/07 10:12:05;;;;;;;7.30;6.60;;;;;;;16.87;54.27;99168.97;5020808;27;98435;-57
2020/12/07 10:14:32;;;;;;;7.45;6.57;;;;;;;16.88;54.52;99170.53;4999309;27;128599;-58
2020/12/07 10:16:58;;;;;;;7.47;6.70;;;;;;;16.88;54.98;99180.63;5003936;27;105418;-59
2020/12/07 10:19:25;;;;;;;8.30;6.90;;;;;;;16.91;55.05;99172.59;5003496;27;97890;-58
2020/12/07 10:21:51;;;;;;;7.82;6.70;;;;;;;16.92;55.35;99182.34;5002808;27;98230;-57
2020/12/07 10:24:17;;;;;;;6.85;6.05;;;;;;;17.00;55.64;99179.84;5002666;27;98799;-58
2020/12/07 10:26:43;;;;;;;7.35;6.60;;;;;;;17.02;55.69;99172.16;5001431;27;128191;-57
2020/12/07 10:29:10;;;;;;;7.50;6.70;;;;;;;17.01;55.44;99182.22;5001585;27;101397;-59
2020/12/07 10:31:36;;;;;;;7.90;6.88;;;;;;;17.02;55.40;99183.03;5019449;27;98606;-58
2020/12/07 10:34:02;;;;;;;7.88;7.05;;;;;;;17.04;55.69;99186.97;5021436;27;99030;-57
2020/12/07 10:36:28;;;;;;;7.90;7.10;;;;;;;17.05;55.89;99180.41;5001740;27;126034;-60
2020/12/07 10:38:54;;;;;;;8.00;7.22;;;;;;;17.11;55.58;99187.22;5003572;27;97912;-58
2020/12/07 10:41:29;;;;;;;8.23;7.20;;;;;;;17.19;55.40;99185.50;5003841;27;98239;-57
2020/12/07 10:43:56;;;;;;;8.05;7.00;;;;;;;17.22;55.71;99200.38;5000794;27;99125;-58
2020/12/07 10:46:22;;;;;;;8.90;7.82;;;;;;;17.22;56.04;99216.72;5002572;27;98593;-59
2020/12/07 10:48:48;;;;;;;8.80;7.60;;;;;;;17.20;56.21;99210.81;4999991;27;115433;-59
2020/12/07 10:51:15;;;;;;;8.15;7.22;;;;;;;17.17;56.54;99223.16;5019170;27;105631;-60
2020/12/07 10:53:41;;;;;;;8.00;7.20;;;;;;;17.10;56.68;99220.25;5022969;27;99111;-58
2020/12/07 10:56:09;;;;;;;7.68;6.97;;;;;;;17.09;56.79;99218.63;5021944;27;120951;-59
2020/12/07 10:58:35;;;;;;;8.45;7.57;;;;;;;17.08;56.99;99223.28;5022770;27;97777;-57
2020/12/07 11:01:01;;;;;;;8.60;7.53;;;;;;;17.06;57.08;99230.22;5021269;27;126948;-60
2020/12/07 11:03:28;;;;;;;8.65;7.82;;;;;;;17.02;56.69;99230.09;5021144;27;107242;-58
2020/12/07 11:05:54;;;;;;;8.10;7.30;;;;;;;17.01;57.38;99230.41;5022100;27;119750;-58
2020/12/07 11:08:33;;;;;;;9.35;7.97;;;;;;;16.99;57.67;99232.69;5020072;27;98086;-60
2020/12/07 11:11:00;;;;;;;8.52;7.57;;;;;;;16.98;57.82;99241.97;5001734;27;98963;-58
2020/12/07 11:13:31;;;;;;;8.93;7.80;;;;;;;16.97;57.37;99243.13;5001735;27;101378;-58
2020/12/07 11:16:01;;;;;;;7.60;6.80;;;;;;;16.93;57.36;99243.78;5002303;27;97965;-58
2020/12/07 11:18:29;;;;;;;7.80;7.00;;;;;;;16.93;57.40;99246.50;5002924;27;99426;-58
2020/12/07 11:20:55;;;;;;;8.35;7.38;;;;;;;16.93;56.96;99249.25;5022019;27;98639;-59
2020/12/07 11:23:22;;;;;;;7.88;7.07;;;;;;;16.89;56.41;99242.09;5021314;27;129144;-58
2020/12/07 11:25:48;;;;;;;8.40;7.60;;;;;;;16.83;55.94;99246.19;5021503;27;102986;-60
2020/12/07 11:28:14;;;;;;;8.40;7.60;;;;;;;16.80;56.12;99249.56;5007183;27;119682;-58
2020/12/07 11:30:40;;;;;;;8.82;7.93;;;;;;;16.80;55.66;99247.66;5001716;27;113698;-60
2020/12/07 11:33:06;;;;;;;9.25;7.68;;;;;;;16.79;55.97;99248.78;5001420;27;111406;-60
2020/12/07 11:35:32;;;;;;;8.32;7.53;;;;;;;16.75;56.12;99252.53;5016503;27;129032;-58
2020/12/07 11:38:04;;;;;;;8.38;7.47;;;;;;;16.72;55.89;99259.38;5021876;27;118676;-58
2020/12/07 11:45:53;;;;;;;9.32;7.50;;;;;;;16.62;56.00;99271.50;4999916;27;97894;-59
2020/12/07 11:48:20;;;;;;;7.60;6.57;;;;;;;16.65;55.94;99261.88;5001176;27;117505;-58
2020/12/07 11:50:46;;;;;;;8.00;7.20;;;;;;;16.65;55.84;99264.59;5001471;27;98788;-58
2020/12/07 11:53:12;;;;;;;7.53;6.72;;;;;;;16.68;56.39;99270.16;5002152;27;98757;-59
2020/12/07 11:55:38;;;;;;;7.55;6.78;;;;;;;16.69;56.52;99281.81;5000965;27;126418;-58
2020/12/07 11:58:05;;;;;;;7.32;6.50;;;;;;;16.70;56.41;99277.97;5000679;27;118213;-61
2020/12/07 12:00:31;;;;;;;7.70;6.90;;;;;;;16.72;56.50;99272.19;5001852;27;98093;-60
2020/12/07 12:02:57;;;;;;;7.93;6.65;;;;;;;16.74;56.70;99278.13;5000480;27;122668;-58
2020/12/07 12:05:23;;;;;;;7.05;6.35;;;;;;;16.71;56.58;99279.56;5000289;27;128234;-60